ROMMA est une association bénévole à but non lucratif. Votre soutien est indispensable : ADHERER à ROMMA ou FAIRE un DON

Crest - (26, Drôme)

Vallée de la Drôme (315 m)   Longitude: 5°2' E   Latitude: 44°44' N Station partenaire n°62
 

Détail journalier du     <<     >>

Température Precipitation Humidité Pression Vent Dir Rafale Dir. rafale Ensol.
Heure (°C) (mm) (%) (hPa) (km/h) (km/h) (min)
01:00 18.604910161SE8SE0
02:00 18.104810162SSE6SE0
03:00 17.205110161SSE6SE0
04:00 16.605310161SE6SE0
05:00 15.805510172SE6SE0
06:00 15.105910171SE6SSE0
07:00 15.105810171SE6SE0
08:00 15.406010171SSE5SE0
09:00 18.804910181SE6SE32
10:00 22.604410172SE8S60
11:00 24.904210174S11ESE60
12:00 26.603710175S11S60
13:00 28.603010174ESE15NE60
14:00 30.202810164ESE16ESE46
15:00 31.402110154ESE16SE60
16:00 32.102210155SSE15ENE60
17:00 31.801910145NE16NE60
18:00 31.802110144S13S60
19:00 31.002410143SSE11ESE59
20:00 28.502910143SSE10SE0
21:00 27.103610144SE16SE0
22:00 24.904210153SE16SE0
23:00 24.704310153SE13ESE0
minuit 22.504910151SE6SE0

Graphique du 26-08-2019

 

Serveur OMMA